sensor_id;sensor_type;location;lat;lon;timestamp;pressure;altitude;pressure_sealevel;temperature;humidity
59971;BME280;45825;45.434;9.116;2023-06-04T00:00:27;100234.34;;;22.37;75.15
59971;BME280;45825;45.434;9.116;2023-06-04T00:02:52;100230.81;;;22.37;75.32
59971;BME280;45825;45.434;9.116;2023-06-04T00:05:18;100233.72;;;22.43;75.19
59971;BME280;45825;45.434;9.116;2023-06-04T00:07:43;100223.13;;;22.33;75.91
59971;BME280;45825;45.434;9.116;2023-06-04T00:10:09;100227.13;;;22.29;76.72
59971;BME280;45825;45.434;9.116;2023-06-04T00:12:34;100228.44;;;22.25;77.20
59971;BME280;45825;45.434;9.116;2023-06-04T00:15:00;100235.31;;;22.28;76.99
59971;BME280;45825;45.434;9.116;2023-06-04T00:17:25;100237.81;;;22.21;77.38
59971;BME280;45825;45.434;9.116;2023-06-04T00:19:50;100235.78;;;22.15;77.55
59971;BME280;45825;45.434;9.116;2023-06-04T00:22:16;100235.78;;;22.15;77.84
59971;BME280;45825;45.434;9.116;2023-06-04T00:24:41;100234.09;;;22.14;77.87
59971;BME280;45825;45.434;9.116;2023-06-04T00:27:08;100230.38;;;21.98;78.63
59971;BME280;45825;45.434;9.116;2023-06-04T00:29:34;100225.81;;;21.90;79.19
59971;BME280;45825;45.434;9.116;2023-06-04T00:31:59;100227.31;;;21.93;79.12
59971;BME280;45825;45.434;9.116;2023-06-04T00:34:25;100229.13;;;21.84;79.49
59971;BME280;45825;45.434;9.116;2023-06-04T00:36:50;100229.75;;;21.78;80.04
59971;BME280;45825;45.434;9.116;2023-06-04T00:39:15;100238.09;;;21.75;80.17
59971;BME280;45825;45.434;9.116;2023-06-04T00:41:41;100235.75;;;21.72;79.47
59971;BME280;45825;45.434;9.116;2023-06-04T00:44:06;100239.75;;;21.68;79.77
59971;BME280;45825;45.434;9.116;2023-06-04T00:46:32;100241.69;;;21.57;80.17
59971;BME280;45825;45.434;9.116;2023-06-04T00:49:01;100242.75;;;21.46;80.58
59971;BME280;45825;45.434;9.116;2023-06-04T00:51:30;100237.06;;;21.41;80.48
59971;BME280;45825;45.434;9.116;2023-06-04T00:53:55;100237.19;;;21.40;80.09
59971;BME280;45825;45.434;9.116;2023-06-04T00:56:21;100244.50;;;21.29;80.39
59971;BME280;45825;45.434;9.116;2023-06-04T00:58:46;100232.94;;;21.29;80.31
59971;BME280;45825;45.434;9.116;2023-06-04T01:04:00;100238.59;;;21.26;81.05
59971;BME280;45825;45.434;9.116;2023-06-04T01:06:38;100248.00;;;21.30;80.78
59971;BME280;45825;45.434;9.116;2023-06-04T01:09:05;100236.66;;;21.36;80.71
59971;BME280;45825;45.434;9.116;2023-06-04T01:11:35;100245.16;;;21.31;80.82
59971;BME280;45825;45.434;9.116;2023-06-04T01:14:02;100244.06;;;21.16;82.14
59971;BME280;45825;45.434;9.116;2023-06-04T01:16:30;100242.53;;;21.13;82.34
59971;BME280;45825;45.434;9.116;2023-06-04T01:19:00;100239.78;;;21.05;82.96
59971;BME280;45825;45.434;9.116;2023-06-04T01:21:29;100239.09;;;21.03;83.05
59971;BME280;45825;45.434;9.116;2023-06-04T01:23:57;100239.47;;;20.90;83.79
59971;BME280;45825;45.434;9.116;2023-06-04T01:26:30;100236.19;;;20.78;84.53
59971;BME280;45825;45.434;9.116;2023-06-04T01:28:56;100235.25;;;20.69;85.20
59971;BME280;45825;45.434;9.116;2023-06-04T01:31:23;100230.41;;;20.83;84.53
59971;BME280;45825;45.434;9.116;2023-06-04T01:33:53;100231.41;;;20.82;84.68
59971;BME280;45825;45.434;9.116;2023-06-04T01:36:19;100227.47;;;20.76;85.44
59971;BME280;45825;45.434;9.116;2023-06-04T01:38:45;100231.41;;;20.82;85.15
59971;BME280;45825;45.434;9.116;2023-06-04T01:41:10;100228.44;;;20.75;85.46
59971;BME280;45825;45.434;9.116;2023-06-04T01:43:35;100223.59;;;20.70;86.33
59971;BME280;45825;45.434;9.116;2023-06-04T01:46:02;100227.22;;;20.69;85.79
59971;BME280;45825;45.434;9.116;2023-06-04T01:48:27;100224.19;;;20.64;86.27
59971;BME280;45825;45.434;9.116;2023-06-04T01:50:52;100235.31;;;20.59;86.62
59971;BME280;45825;45.434;9.116;2023-06-04T01:53:18;100231.41;;;20.54;86.64
59971;BME280;45825;45.434;9.116;2023-06-04T01:55:43;100233.00;;;20.46;87.40
59971;BME280;45825;45.434;9.116;2023-06-04T01:58:09;100234.47;;;20.59;86.39
59971;BME280;45825;45.434;9.116;2023-06-04T02:00:35;100236.09;;;20.70;85.55
59971;BME280;45825;45.434;9.116;2023-06-04T02:03:00;100247.16;;;20.57;86.01
59971;BME280;45825;45.434;9.116;2023-06-04T02:05:26;100250.00;;;20.73;84.99
59971;BME280;45825;45.434;9.116;2023-06-04T02:07:51;100243.88;;;20.63;85.99
59971;BME280;45825;45.434;9.116;2023-06-04T02:10:18;100250.69;;;20.75;85.57
59971;BME280;45825;45.434;9.116;2023-06-04T02:12:58;100261.50;;;20.84;85.22
59971;BME280;45825;45.434;9.116;2023-06-04T02:15:24;100262.22;;;20.76;85.32
59971;BME280;45825;45.434;9.116;2023-06-04T02:17:50;100260.66;;;20.83;84.90
59971;BME280;45825;45.434;9.116;2023-06-04T02:20:16;100266.41;;;20.78;85.54
59971;BME280;45825;45.434;9.116;2023-06-04T02:22:42;100269.66;;;20.82;85.62
59971;BME280;45825;45.434;9.116;2023-06-04T02:25:08;100268.88;;;20.90;84.80
59971;BME280;45825;45.434;9.116;2023-06-04T02:27:36;100266.94;;;20.92;85.06
59971;BME280;45825;45.434;9.116;2023-06-04T02:30:03;100273.88;;;20.85;85.62
59971;BME280;45825;45.434;9.116;2023-06-04T02:32:28;100274.94;;;20.92;85.11
59971;BME280;45825;45.434;9.116;2023-06-04T02:34:54;100274.00;;;20.83;85.79
59971;BME280;45825;45.434;9.116;2023-06-04T02:37:20;100277.69;;;21.00;84.88
59971;BME280;45825;45.434;9.116;2023-06-04T02:39:46;100282.47;;;20.97;84.99
59971;BME280;45825;45.434;9.116;2023-06-04T02:42:11;100282.44;;;21.06;84.26
59971;BME280;45825;45.434;9.116;2023-06-04T02:44:36;100286.63;;;21.09;84.24
59971;BME280;45825;45.434;9.116;2023-06-04T02:47:02;100277.53;;;21.02;84.86
59971;BME280;45825;45.434;9.116;2023-06-04T02:49:27;100292.91;;;21.00;85.25
59971;BME280;45825;45.434;9.116;2023-06-04T02:51:52;100291.06;;;21.00;84.91
59971;BME280;45825;45.434;9.116;2023-06-04T02:54:18;100292.59;;;21.03;84.62
59971;BME280;45825;45.434;9.116;2023-06-04T02:56:43;100300.16;;;21.07;84.27
59971;BME280;45825;45.434;9.116;2023-06-04T02:59:09;100303.13;;;21.04;83.82
59971;BME280;45825;45.434;9.116;2023-06-04T03:01:35;100316.34;;;21.06;83.99
59971;BME280;45825;45.434;9.116;2023-06-04T03:04:01;100316.50;;;21.04;83.87
59971;BME280;45825;45.434;9.116;2023-06-04T03:06:30;100318.41;;;21.12;82.58
59971;BME280;45825;45.434;9.116;2023-06-04T03:08:57;100326.91;;;21.07;82.72
59971;BME280;45825;45.434;9.116;2023-06-04T03:11:22;100326.66;;;21.19;81.59
59971;BME280;45825;45.434;9.116;2023-06-04T03:13:48;100321.63;;;21.16;80.51
59971;BME280;45825;45.434;9.116;2023-06-04T03:16:14;100325.34;;;21.23;80.02
59971;BME280;45825;45.434;9.116;2023-06-04T03:18:40;100333.16;;;21.16;80.15
59971;BME280;45825;45.434;9.116;2023-06-04T03:21:07;100336.38;;;21.20;79.87
59971;BME280;45825;45.434;9.116;2023-06-04T03:23:33;100331.03;;;21.20;80.26
59971;BME280;45825;45.434;9.116;2023-06-04T03:26:02;100329.19;;;21.20;80.09
59971;BME280;45825;45.434;9.116;2023-06-04T03:28:27;100335.59;;;21.28;79.18
59971;BME280;45825;45.434;9.116;2023-06-04T03:30:53;100327.88;;;21.25;78.90
59971;BME280;45825;45.434;9.116;2023-06-04T03:33:18;100326.34;;;21.22;79.43
59971;BME280;45825;45.434;9.116;2023-06-04T03:35:43;100326.88;;;21.26;79.10
59971;BME280;45825;45.434;9.116;2023-06-04T03:38:09;100326.06;;;21.25;79.47
59971;BME280;45825;45.434;9.116;2023-06-04T03:40:34;100324.06;;;21.27;79.08
59971;BME280;45825;45.434;9.116;2023-06-04T03:42:59;100327.28;;;21.31;78.05
59971;BME280;45825;45.434;9.116;2023-06-04T03:45:26;100319.25;;;21.31;77.73
59971;BME280;45825;45.434;9.116;2023-06-04T03:47:51;100324.63;;;21.31;77.37
59971;BME280;45825;45.434;9.116;2023-06-04T03:50:18;100329.03;;;21.22;76.43
59971;BME280;45825;45.434;9.116;2023-06-04T03:52:43;100334.78;;;21.27;75.34
59971;BME280;45825;45.434;9.116;2023-06-04T03:55:08;100334.78;;;21.27;74.76
59971;BME280;45825;45.434;9.116;2023-06-04T03:57:34;100322.75;;;21.31;74.29
59971;BME280;45825;45.434;9.116;2023-06-04T03:59:59;100329.25;;;21.29;73.54
59971;BME280;45825;45.434;9.116;2023-06-04T04:02:25;100326.56;;;21.29;72.99
59971;BME280;45825;45.434;9.116;2023-06-04T04:04:50;100323.53;;;21.24;73.20
59971;BME280;45825;45.434;9.116;2023-06-04T04:07:19;100326.13;;;21.15;73.21
59971;BME280;45825;45.434;9.116;2023-06-04T04:09:46;100322.22;;;21.28;72.69
59971;BME280;45825;45.434;9.116;2023-06-04T04:12:11;100323.28;;;21.35;72.13
59971;BME280;45825;45.434;9.116;2023-06-04T04:14:36;100319.56;;;21.46;71.41
59971;BME280;45825;45.434;9.116;2023-06-04T04:17:01;100310.53;;;21.47;70.81
59971;BME280;45825;45.434;9.116;2023-06-04T04:19:27;100323.72;;;21.48;69.82
59971;BME280;45825;45.434;9.116;2023-06-04T04:21:53;100312.06;;;21.31;69.18
59971;BME280;45825;45.434;9.116;2023-06-04T04:24:23;100309.75;;;21.18;69.19
59971;BME280;45825;45.434;9.116;2023-06-04T04:26:48;100304.81;;;21.24;68.89
59971;BME280;45825;45.434;9.116;2023-06-04T04:29:17;100302.50;;;21.29;69.13
59971;BME280;45825;45.434;9.116;2023-06-04T04:31:43;100299.34;;;21.33;69.31
59971;BME280;45825;45.434;9.116;2023-06-04T04:34:08;100292.53;;;21.39;68.68
59971;BME280;45825;45.434;9.116;2023-06-04T04:36:34;100296.06;;;21.40;69.35
59971;BME280;45825;45.434;9.116;2023-06-04T04:39:01;100294.63;;;21.45;69.66
59971;BME280;45825;45.434;9.116;2023-06-04T04:41:27;100291.81;;;21.55;69.38
59971;BME280;45825;45.434;9.116;2023-06-04T04:43:53;100296.19;;;21.56;69.68
59971;BME280;45825;45.434;9.116;2023-06-04T04:46:18;100292.00;;;21.54;70.04
59971;BME280;45825;45.434;9.116;2023-06-04T04:48:43;100300.72;;;21.56;70.66
59971;BME280;45825;45.434;9.116;2023-06-04T04:51:09;100299.91;;;21.63;70.48
59971;BME280;45825;45.434;9.116;2023-06-04T04:53:34;100307.75;;;21.57;70.98
59971;BME280;45825;45.434;9.116;2023-06-04T04:56:00;100308.41;;;21.59;71.55
59971;BME280;45825;45.434;9.116;2023-06-04T04:58:25;100306.06;;;21.56;72.04
59971;BME280;45825;45.434;9.116;2023-06-04T05:00:50;100308.88;;;21.54;72.71
59971;BME280;45825;45.434;9.116;2023-06-04T05:03:16;100302.31;;;21.48;73.18
59971;BME280;45825;45.434;9.116;2023-06-04T05:05:41;100307.69;;;21.48;73.40
59971;BME280;45825;45.434;9.116;2023-06-04T05:08:07;100306.00;;;21.47;73.51
59971;BME280;45825;45.434;9.116;2023-06-04T05:10:32;100312.03;;;21.49;73.64
59971;BME280;45825;45.434;9.116;2023-06-04T05:12:59;100317.47;;;21.40;73.93
59971;BME280;45825;45.434;9.116;2023-06-04T05:15:26;100314.94;;;21.38;74.22
59971;BME280;45825;45.434;9.116;2023-06-04T05:17:52;100314.03;;;21.47;74.02
59971;BME280;45825;45.434;9.116;2023-06-04T05:20:18;100318.47;;;21.39;74.51
59971;BME280;45825;45.434;9.116;2023-06-04T05:22:44;100313.28;;;21.19;75.48
59971;BME280;45825;45.434;9.116;2023-06-04T05:25:11;100303.38;;;21.11;75.58
59971;BME280;45825;45.434;9.116;2023-06-04T05:27:37;100309.31;;;21.23;75.46
59971;BME280;45825;45.434;9.116;2023-06-04T05:30:03;100310.06;;;21.33;75.21
59971;BME280;45825;45.434;9.116;2023-06-04T05:32:29;100308.34;;;21.50;74.89
59971;BME280;45825;45.434;9.116;2023-06-04T05:34:56;100316.16;;;21.44;74.42
59971;BME280;45825;45.434;9.116;2023-06-04T05:37:22;100306.22;;;21.54;74.72
59971;BME280;45825;45.434;9.116;2023-06-04T05:39:49;100324.66;;;21.57;73.70
59971;BME280;45825;45.434;9.116;2023-06-04T05:42:14;100311.19;;;21.67;73.35
59971;BME280;45825;45.434;9.116;2023-06-04T05:44:40;100315.22;;;21.71;73.56
59971;BME280;45825;45.434;9.116;2023-06-04T05:47:05;100323.47;;;21.78;73.12
59971;BME280;45825;45.434;9.116;2023-06-04T05:49:32;100313.34;;;21.90;72.20
59971;BME280;45825;45.434;9.116;2023-06-04T05:51:57;100313.19;;;21.91;72.19
59971;BME280;45825;45.434;9.116;2023-06-04T05:54:23;100312.75;;;22.04;71.27
59971;BME280;45825;45.434;9.116;2023-06-04T05:56:48;100318.81;;;22.15;71.21
59971;BME280;45825;45.434;9.116;2023-06-04T05:59:13;100321.03;;;22.19;70.28
59971;BME280;45825;45.434;9.116;2023-06-04T06:01:40;100327.97;;;22.30;70.02
59971;BME280;45825;45.434;9.116;2023-06-04T06:04:05;100333.00;;;22.33;69.88
59971;BME280;45825;45.434;9.116;2023-06-04T06:06:30;100322.84;;;22.45;69.19
59971;BME280;45825;45.434;9.116;2023-06-04T06:08:56;100321.91;;;22.55;68.55
59971;BME280;45825;45.434;9.116;2023-06-04T06:11:21;100326.09;;;22.66;67.78
59971;BME280;45825;45.434;9.116;2023-06-04T06:13:46;100325.06;;;22.58;67.41
59971;BME280;45825;45.434;9.116;2023-06-04T06:16:12;100334.28;;;22.56;67.66
59971;BME280;45825;45.434;9.116;2023-06-04T06:18:37;100334.13;;;22.57;66.16
59971;BME280;45825;45.434;9.116;2023-06-04T06:21:02;100328.75;;;22.57;67.25
59971;BME280;45825;45.434;9.116;2023-06-04T06:23:28;100327.78;;;22.67;66.82
59971;BME280;45825;45.434;9.116;2023-06-04T06:25:53;100335.16;;;22.65;67.33
59971;BME280;45825;45.434;9.116;2023-06-04T06:28:18;100341.00;;;22.60;67.52
59971;BME280;45825;45.434;9.116;2023-06-04T06:30:44;100330.44;;;22.58;67.90
59971;BME280;45825;45.434;9.116;2023-06-04T06:33:09;100332.63;;;22.55;68.12
59971;BME280;45825;45.434;9.116;2023-06-04T06:35:35;100329.59;;;22.58;68.36
59971;BME280;45825;45.434;9.116;2023-06-04T06:38:00;100333.13;;;22.67;67.93
59971;BME280;45825;45.434;9.116;2023-06-04T06:40:25;100343.03;;;22.74;68.35
59971;BME280;45825;45.434;9.116;2023-06-04T06:42:51;100350.09;;;22.75;67.31
59971;BME280;45825;45.434;9.116;2023-06-04T06:45:19;100346.72;;;22.65;66.50
59971;BME280;45825;45.434;9.116;2023-06-04T06:47:45;100346.84;;;22.55;66.42
59971;BME280;45825;45.434;9.116;2023-06-04T06:50:10;100353.56;;;22.59;66.21
59971;BME280;45825;45.434;9.116;2023-06-04T06:52:36;100345.22;;;22.63;65.87
59971;BME280;45825;45.434;9.116;2023-06-04T06:55:02;100345.53;;;22.68;65.63
59971;BME280;45825;45.434;9.116;2023-06-04T06:57:28;100361.66;;;22.41;65.39
59971;BME280;45825;45.434;9.116;2023-06-04T06:59:53;100360.19;;;22.47;65.41
59971;BME280;45825;45.434;9.116;2023-06-04T07:02:19;100360.91;;;22.49;67.29
59971;BME280;45825;45.434;9.116;2023-06-04T07:04:45;100362.78;;;22.57;65.85
59971;BME280;45825;45.434;9.116;2023-06-04T07:07:10;100368.97;;;22.57;65.77
59971;BME280;45825;45.434;9.116;2023-06-04T07:09:35;100368.63;;;22.52;63.59
59971;BME280;45825;45.434;9.116;2023-06-04T07:12:01;100366.63;;;22.54;63.44
59971;BME280;45825;45.434;9.116;2023-06-04T07:14:26;100371.06;;;22.45;63.21
59971;BME280;45825;45.434;9.116;2023-06-04T07:16:51;100376.25;;;22.39;63.51
59971;BME280;45825;45.434;9.116;2023-06-04T07:19:17;100369.22;;;22.46;64.73
59971;BME280;45825;45.434;9.116;2023-06-04T07:21:42;100378.50;;;22.52;64.38
59971;BME280;45825;45.434;9.116;2023-06-04T07:24:08;100370.97;;;22.55;64.38
59971;BME280;45825;45.434;9.116;2023-06-04T07:26:33;100372.97;;;22.53;64.69
59971;BME280;45825;45.434;9.116;2023-06-04T07:28:58;100368.16;;;22.57;65.40
59971;BME280;45825;45.434;9.116;2023-06-04T07:31:24;100372.16;;;22.61;64.56
59971;BME280;45825;45.434;9.116;2023-06-04T07:33:49;100366.16;;;22.67;63.80
59971;BME280;45825;45.434;9.116;2023-06-04T07:36:15;100366.50;;;22.72;63.32
59971;BME280;45825;45.434;9.116;2023-06-04T07:38:41;100362.22;;;22.88;62.87
59971;BME280;45825;45.434;9.116;2023-06-04T07:41:07;100363.41;;;23.02;61.54
59971;BME280;45825;45.434;9.116;2023-06-04T07:43:36;100369.78;;;23.01;61.23
59971;BME280;45825;45.434;9.116;2023-06-04T07:46:04;100376.00;;;23.10;61.26
59971;BME280;45825;45.434;9.116;2023-06-04T07:48:30;100387.22;;;23.13;62.36
59971;BME280;45825;45.434;9.116;2023-06-04T07:51:02;100389.78;;;23.23;61.81
59971;BME280;45825;45.434;9.116;2023-06-04T07:53:29;100382.25;;;23.27;61.50
59971;BME280;45825;45.434;9.116;2023-06-04T07:55:55;100380.56;;;23.26;61.33
59971;BME280;45825;45.434;9.116;2023-06-04T07:58:21;100388.63;;;23.34;60.94
59971;BME280;45825;45.434;9.116;2023-06-04T08:00:47;100382.97;;;23.37;60.49
59971;BME280;45825;45.434;9.116;2023-06-04T08:03:12;100375.06;;;23.44;60.32
59971;BME280;45825;45.434;9.116;2023-06-04T08:05:37;100378.09;;;23.49;59.44
59971;BME280;45825;45.434;9.116;2023-06-04T08:08:03;100375.22;;;23.42;60.33
59971;BME280;45825;45.434;9.116;2023-06-04T08:10:29;100382.44;;;23.50;59.62
59971;BME280;45825;45.434;9.116;2023-06-04T08:12:55;100385.63;;;23.46;59.50
59971;BME280;45825;45.434;9.116;2023-06-04T08:15:20;100395.19;;;23.40;60.00
59971;BME280;45825;45.434;9.116;2023-06-04T08:17:45;100390.50;;;23.34;60.48
59971;BME280;45825;45.434;9.116;2023-06-04T08:20:11;100396.56;;;23.44;60.14
59971;BME280;45825;45.434;9.116;2023-06-04T08:22:36;100398.56;;;23.50;60.23
59971;BME280;45825;45.434;9.116;2023-06-04T08:25:02;100396.03;;;23.74;60.73
59971;BME280;45825;45.434;9.116;2023-06-04T08:27:28;100400.56;;;23.81;61.28
59971;BME280;45825;45.434;9.116;2023-06-04T08:29:54;100410.31;;;23.91;60.07
59971;BME280;45825;45.434;9.116;2023-06-04T08:32:20;100405.94;;;23.90;59.66
59971;BME280;45825;45.434;9.116;2023-06-04T08:34:45;100407.78;;;24.06;59.80
59971;BME280;45825;45.434;9.116;2023-06-04T08:37:11;100405.97;;;24.06;59.55
59971;BME280;45825;45.434;9.116;2023-06-04T08:39:36;100406.13;;;24.13;58.71
59971;BME280;45825;45.434;9.116;2023-06-04T08:42:05;100400.69;;;24.21;58.12
59971;BME280;45825;45.434;9.116;2023-06-04T08:44:32;100400.53;;;24.23;59.38
59971;BME280;45825;45.434;9.116;2023-06-04T08:47:03;100396.03;;;23.90;58.74
59971;BME280;45825;45.434;9.116;2023-06-04T08:49:34;100397.06;;;23.81;59.48
59971;BME280;45825;45.434;9.116;2023-06-04T08:52:01;100410.31;;;23.91;60.18
59971;BME280;45825;45.434;9.116;2023-06-04T08:54:27;100407.09;;;23.79;59.88
59971;BME280;45825;45.434;9.116;2023-06-04T08:56:56;100407.47;;;23.84;60.51
59971;BME280;45825;45.434;9.116;2023-06-04T08:59:22;100406.28;;;23.78;60.92
59971;BME280;45825;45.434;9.116;2023-06-04T09:01:47;100402.25;;;23.91;61.83
59971;BME280;45825;45.434;9.116;2023-06-04T09:04:13;100407.44;;;24.17;61.24
59971;BME280;45825;45.434;9.116;2023-06-04T09:06:39;100405.72;;;24.33;61.30
59971;BME280;45825;45.434;9.116;2023-06-04T09:09:09;100400.81;;;24.45;61.09
59971;BME280;45825;45.434;9.116;2023-06-04T09:11:41;100411.19;;;24.56;60.92
59971;BME280;45825;45.434;9.116;2023-06-04T09:14:13;100410.56;;;24.46;60.47
59971;BME280;45825;45.434;9.116;2023-06-04T09:16:48;100405.97;;;24.54;59.60
59971;BME280;45825;45.434;9.116;2023-06-04T09:19:14;100401.97;;;24.50;60.63
59971;BME280;45825;45.434;9.116;2023-06-04T09:21:59;100414.63;;;24.41;60.60
59971;BME280;45825;45.434;9.116;2023-06-04T09:24:47;100409.03;;;24.51;61.13
59971;BME280;45825;45.434;9.116;2023-06-04T09:27:20;100409.13;;;24.66;61.07
59971;BME280;45825;45.434;9.116;2023-06-04T09:29:55;100411.47;;;24.69;59.76
59971;BME280;45825;45.434;9.116;2023-06-04T09:32:28;100415.56;;;24.49;60.67
59971;BME280;45825;45.434;9.116;2023-06-04T09:34:55;100414.41;;;24.43;60.07
59971;BME280;45825;45.434;9.116;2023-06-04T09:37:22;100412.59;;;24.35;60.73
59971;BME280;45825;45.434;9.116;2023-06-04T09:39:57;100419.50;;;24.21;61.00
59971;BME280;45825;45.434;9.116;2023-06-04T09:42:23;100419.72;;;24.11;61.44
59971;BME280;45825;45.434;9.116;2023-06-04T09:44:48;100411.13;;;24.16;61.10
59971;BME280;45825;45.434;9.116;2023-06-04T09:47:14;100412.47;;;23.95;61.69
59971;BME280;45825;45.434;9.116;2023-06-04T09:49:45;100413.69;;;23.84;61.86
59971;BME280;45825;45.434;9.116;2023-06-04T09:52:11;100413.00;;;23.82;62.33
59971;BME280;45825;45.434;9.116;2023-06-04T09:54:39;100412.16;;;23.82;62.59
59971;BME280;45825;45.434;9.116;2023-06-04T09:57:14;100410.47;;;23.72;63.18
59971;BME280;45825;45.434;9.116;2023-06-04T09:59:44;100409.16;;;23.68;63.84
59971;BME280;45825;45.434;9.116;2023-06-04T10:02:12;100410.66;;;23.63;64.32
59971;BME280;45825;45.434;9.116;2023-06-04T10:04:40;100412.31;;;23.72;64.33
59971;BME280;45825;45.434;9.116;2023-06-04T10:07:08;100412.31;;;23.80;64.61
59971;BME280;45825;45.434;9.116;2023-06-04T10:09:35;100415.00;;;23.89;64.96
59971;BME280;45825;45.434;9.116;2023-06-04T10:12:08;100417.84;;;23.87;66.07
59971;BME280;45825;45.434;9.116;2023-06-04T10:14:41;100428.59;;;23.54;75.97
59971;BME280;45825;45.434;9.116;2023-06-04T10:17:11;100434.84;;;23.11;80.99
59971;BME280;45825;45.434;9.116;2023-06-04T10:19:38;100430.50;;;23.10;84.39
59971;BME280;45825;45.434;9.116;2023-06-04T10:22:05;100431.50;;;23.09;85.33
59971;BME280;45825;45.434;9.116;2023-06-04T10:24:31;100423.81;;;23.14;83.97
59971;BME280;45825;45.434;9.116;2023-06-04T10:26:59;100417.78;;;23.21;83.02
59971;BME280;45825;45.434;9.116;2023-06-04T10:29:25;100417.09;;;23.10;84.35
59971;BME280;45825;45.434;9.116;2023-06-04T10:31:54;100435.69;;;23.03;86.18
59971;BME280;45825;45.434;9.116;2023-06-04T10:34:20;100439.84;;;22.98;85.99
59971;BME280;45825;45.434;9.116;2023-06-04T10:36:45;100430.13;;;22.97;83.57
59971;BME280;45825;45.434;9.116;2023-06-04T10:39:11;100440.00;;;22.96;83.46
59971;BME280;45825;45.434;9.116;2023-06-04T10:41:37;100428.78;;;23.01;83.37
59971;BME280;45825;45.434;9.116;2023-06-04T10:44:02;100424.63;;;22.98;81.09
59971;BME280;45825;45.434;9.116;2023-06-04T10:46:41;100432.81;;;22.97;79.77
59971;BME280;45825;45.434;9.116;2023-06-04T10:49:09;100436.84;;;22.93;77.28
59971;BME280;45825;45.434;9.116;2023-06-04T10:51:35;100431.78;;;22.89;77.55
59971;BME280;45825;45.434;9.116;2023-06-04T10:54:02;100437.31;;;22.96;77.53
59971;BME280;45825;45.434;9.116;2023-06-04T10:56:32;100427.00;;;23.10;75.47
59971;BME280;45825;45.434;9.116;2023-06-04T10:58:58;100422.09;;;23.13;73.90
59971;BME280;45825;45.434;9.116;2023-06-04T11:01:30;100421.47;;;23.20;74.09
59971;BME280;45825;45.434;9.116;2023-06-04T11:03:57;100421.34;;;23.38;74.06
59971;BME280;45825;45.434;9.116;2023-06-04T11:06:22;100423.72;;;23.49;74.59
59971;BME280;45825;45.434;9.116;2023-06-04T11:09:02;100423.91;;;23.64;73.28
59971;BME280;45825;45.434;9.116;2023-06-04T11:11:27;100431.63;;;23.84;71.33
59971;BME280;45825;45.434;9.116;2023-06-04T11:13:52;100421.72;;;23.76;72.39
59971;BME280;45825;45.434;9.116;2023-06-04T11:16:19;100413.50;;;23.94;71.77
59971;BME280;45825;45.434;9.116;2023-06-04T11:18:55;100419.00;;;24.26;67.87
59971;BME280;45825;45.434;9.116;2023-06-04T11:21:21;100418.25;;;24.57;65.92
59971;BME280;45825;45.434;9.116;2023-06-04T11:23:47;100411.97;;;24.81;64.91
59971;BME280;45825;45.434;9.116;2023-06-04T11:26:13;100404.97;;;25.04;65.23
59971;BME280;45825;45.434;9.116;2023-06-04T11:28:39;100401.91;;;25.30;62.08
59971;BME280;45825;45.434;9.116;2023-06-04T11:31:05;100403.75;;;25.06;61.53
59971;BME280;45825;45.434;9.116;2023-06-04T11:33:51;100395.91;;;24.96;60.47
59971;BME280;45825;45.434;9.116;2023-06-04T11:36:27;100396.56;;;24.99;61.10
59971;BME280;45825;45.434;9.116;2023-06-04T11:39:00;100389.63;;;25.04;59.99
59971;BME280;45825;45.434;9.116;2023-06-04T11:41:33;100390.50;;;25.05;59.44
59971;BME280;45825;45.434;9.116;2023-06-04T11:44:02;100378.72;;;25.06;59.14
59971;BME280;45825;45.434;9.116;2023-06-04T11:46:28;100375.28;;;25.12;59.48
59971;BME280;45825;45.434;9.116;2023-06-04T11:48:54;100377.75;;;25.69;58.10
59971;BME280;45825;45.434;9.116;2023-06-04T11:51:23;100370.84;;;26.04;58.65
59971;BME280;45825;45.434;9.116;2023-06-04T11:53:48;100361.31;;;26.32;57.19
59971;BME280;45825;45.434;9.116;2023-06-04T11:56:15;100357.13;;;26.29;55.68
59971;BME280;45825;45.434;9.116;2023-06-04T11:58:40;100360.84;;;26.28;54.54
59971;BME280;45825;45.434;9.116;2023-06-04T12:01:07;100361.47;;;26.45;55.65
59971;BME280;45825;45.434;9.116;2023-06-04T12:03:40;100349.94;;;26.52;55.44
59971;BME280;45825;45.434;9.116;2023-06-04T12:06:13;100349.81;;;26.60;55.27
59971;BME280;45825;45.434;9.116;2023-06-04T12:08:53;100346.75;;;26.63;56.57
59971;BME280;45825;45.434;9.116;2023-06-04T12:11:32;100330.56;;;26.63;56.15
59971;BME280;45825;45.434;9.116;2023-06-04T12:14:04;100328.56;;;26.87;56.09
59971;BME280;45825;45.434;9.116;2023-06-04T12:16:31;100330.66;;;27.07;55.34
59971;BME280;45825;45.434;9.116;2023-06-04T12:19:10;100329.34;;;27.24;52.43
59971;BME280;45825;45.434;9.116;2023-06-04T12:21:36;100316.66;;;27.46;51.82
59971;BME280;45825;45.434;9.116;2023-06-04T12:24:20;100320.13;;;27.62;49.71
59971;BME280;45825;45.434;9.116;2023-06-04T12:26:45;100314.41;;;27.72;51.84
59971;BME280;45825;45.434;9.116;2023-06-04T12:29:11;100313.69;;;27.92;51.90
59971;BME280;45825;45.434;9.116;2023-06-04T12:31:41;100312.53;;;28.08;49.04
59971;BME280;45825;45.434;9.116;2023-06-04T12:34:07;100305.56;;;28.20;49.64
59971;BME280;45825;45.434;9.116;2023-06-04T12:36:33;100296.41;;;28.21;48.25
59971;BME280;45825;45.434;9.116;2023-06-04T12:39:00;100305.00;;;27.96;45.76
59971;BME280;45825;45.434;9.116;2023-06-04T12:41:29;100298.75;;;28.02;49.04
59971;BME280;45825;45.434;9.116;2023-06-04T12:43:55;100290.53;;;28.17;49.36
59971;BME280;45825;45.434;9.116;2023-06-04T12:46:22;100298.53;;;28.33;49.16
59971;BME280;45825;45.434;9.116;2023-06-04T12:48:48;100295.78;;;28.26;46.60
59971;BME280;45825;45.434;9.116;2023-06-04T12:51:13;100289.38;;;28.40;46.17